< Typhoon 196620 1966 Season Typhoon 196622 >
Typhoon 196621 (ELSIE)
General InformationTrack Information on Google Maps || Disaster Info.ResourceGoogle EarthGE AnimationAtom FeedGeoJSON
Detalied Best Track (Time Zone = UTC)
Year Month Day Hour Lat. Long. Pressure (hPa) Wind (kt) Class Image Chart
1966 9 8 18 19.0 112.0 1002 0 2 -- Chart
1966 9 9 00 19.0 112.0 1002 0 2 -- Chart
1966 9 9 06 19.0 112.0 1002 0 2 -- Chart
1966 9 9 12 19.0 112.5 1004 0 2 -- Chart
1966 9 9 18 19.0 113.1 1004 0 2 -- Chart
1966 9 10 00 19.0 113.9 1004 0 2 -- Chart
1966 9 10 06 18.9 114.3 1004 0 2 -- Chart
1966 9 10 12 18.8 114.9 1004 0 2 -- Chart
1966 9 10 18 18.5 115.5 1004 0 2 -- Chart
1966 9 11 00 18.0 116.0 1004 0 2 -- Chart
1966 9 11 06 17.8 116.5 1002 0 2 -- Chart
1966 9 11 12 17.6 117.0 1000 0 2 -- Chart
1966 9 11 18 17.5 117.5 996 0 9 -- Chart
1966 9 12 00 17.4 117.8 990 0 9 -- Chart
1966 9 12 06 17.4 118.0 985 0 9 -- Chart
1966 9 12 12 17.8 118.1 978 0 9 -- Chart
1966 9 12 18 17.9 117.9 978 0 9 -- Chart
1966 9 13 00 18.2 117.8 978 0 9 -- Chart
1966 9 13 06 18.5 117.5 978 0 9 -- Chart
1966 9 13 12 18.8 117.4 976 0 9 -- Chart
1966 9 13 18 19.2 117.4 974 0 9 -- Chart
1966 9 14 00 19.7 117.4 972 0 9 -- Chart
1966 9 14 06 20.3 117.6 968 0 9 -- Chart
1966 9 14 12 20.5 117.7 966 0 9 -- Chart
1966 9 14 18 21.0 117.7 955 0 9 -- Chart
1966 9 15 00 21.5 118.0 945 0 9 -- Chart
1966 9 15 06 21.7 118.1 945 0 9 -- Chart
1966 9 15 12 21.9 118.8 960 0 9 -- Chart
1966 9 15 18 22.1 119.3 970 0 9 -- Chart
1966 9 16 00 22.3 120.1 970 0 9 -- Chart
1966 9 16 06 22.6 121.6 977 0 9 -- Chart
1966 9 16 12 23.5 122.6 977 0 9 -- Chart
1966 9 16 18 24.3 123.7 980 0 9 -- Chart
1966 9 17 00 25.3 124.5 982 0 9 -- Chart
1966 9 17 06 26.3 125.4 984 0 9 -- Chart
1966 9 17 12 27.2 126.9 990 0 9 -- Chart
1966 9 17 18 28.2 128.1 996 0 9 -- Chart
1966 9 18 00 30.0 129.7 1002 0 6 -- Chart
1966 9 18 06 31.0 131.0 1002 0 6 -- Chart
1966 9 18 12 32.0 133.0 1004 0 6 -- Chart
1966 9 18 18 33.5 135.0 1005 0 6 -- Chart
1966 9 19 00 34.0 137.0 1008 0 6 -- Chart
1966 9 19 06 34.1 137.1 1008 0 6 -- Chart
Japan Meteorological Agency Best Track Data | Correction Date : 1989-06-01
< Typhoon 196620 1966 Season Typhoon 196622 >

Help